Time;durP1;ratioP1;P1;durP2;ratioP2;P2;SDS_P1;SDS_P2;PMS_P1;PMS_P2;Temp;Humidity;BMP_temperature;BMP_pressure;BME280_temperature;BME280_humidity;BME280_pressure;Samples;Min_cycle;Max_cycle;Signal;HPM_P1;HPM_P2
2022/12/23 00:00:05;;;;;;;7.73;6.67;;;;;;;;;;5113941;28;20486;-73
2022/12/23 00:02:32;;;;;;;7.77;6.37;;;;;;;;;;5114228;28;20533;-73
2022/12/23 00:04:59;;;;;;;9.20;7.27;;;;;;;;;;5114109;28;20446;-73
2022/12/23 00:07:26;;;;;;;6.50;5.90;;;;;;;;;;5114135;28;20556;-73
2022/12/23 00:09:53;;;;;;;5.77;5.13;;;;;;;;;;5113870;28;20499;-73
2022/12/23 00:15:07;;;;;;;5.57;5.07;;;;;;;;;;5114017;28;20798;-73
2022/12/23 00:17:34;;;;;;;5.07;4.67;;;;;;;;;;5113436;28;20491;-74
2022/12/23 00:20:01;;;;;;;4.70;4.30;;;;;;;;;;5113444;28;20555;-75
2022/12/23 00:25:10;;;;;;;4.80;4.40;;;;;;;;;;5112533;28;20982;-75
2022/12/23 00:27:37;;;;;;;5.07;4.50;;;;;;;;;;5113721;28;20446;-75
2022/12/23 00:30:04;;;;;;;4.70;4.20;;;;;;;;;;5113620;28;20449;-75
2022/12/23 00:32:32;;;;;;;5.30;4.80;;;;;;;;;;5113881;28;20521;-74
2022/12/23 00:34:59;;;;;;;5.40;4.90;;;;;;;;;;5113679;28;20537;-74
2022/12/23 00:37:26;;;;;;;5.40;4.90;;;;;;;;;;5113529;28;20796;-74
2022/12/23 00:42:53;;;;;;;5.63;5.13;;;;;;;;;;5113435;28;20441;-74
2022/12/23 00:45:20;;;;;;;6.50;5.27;;;;;;;;;;5113191;28;20530;-74
2022/12/23 00:50:34;;;;;;;5.57;5.07;;;;;;;;;;5113280;28;20439;-74
2022/12/23 00:53:01;;;;;;;5.23;4.83;;;;;;;;;;5113387;28;20541;-74
2022/12/23 00:55:28;;;;;;;6.00;5.43;;;;;;;;;;5113404;28;20557;-74
2022/12/23 00:57:55;;;;;;;5.17;4.77;;;;;;;;;;5113135;28;21018;-74
2022/12/23 01:05:35;;;;;;;5.43;4.67;;;;;;;;;;5112860;28;20481;-73
2022/12/23 01:05:59;;;;;;;6.97;5.40;;;;;;;;;;5115857;28;20456;-74
2022/12/23 01:08:26;;;;;;;6.53;5.40;;;;;;;;;;5113039;28;20480;-74
2022/12/23 01:10:53;;;;;;;4.93;4.50;;;;;;;;;;5112962;28;20975;-74
2022/12/23 01:13:20;;;;;;;7.37;6.60;;;;;;;;;;5112996;28;20450;-73
2022/12/23 01:15:48;;;;;;;6.10;5.40;;;;;;;;;;5113097;28;20533;-73
2022/12/23 01:18:16;;;;;;;5.67;4.90;;;;;;;;;;5113017;28;20449;-74
2022/12/23 01:20:43;;;;;;;6.87;6.20;;;;;;;;;;5112861;28;20485;-73
2022/12/23 01:23:10;;;;;;;8.50;6.80;;;;;;;;;;5112833;28;20778;-73
2022/12/23 01:25:37;;;;;;;9.73;8.17;;;;;;;;;;5113121;28;20456;-73
2022/12/23 01:28:04;;;;;;;8.80;7.67;;;;;;;;;;5113037;28;20540;-73
2022/12/23 01:30:30;;;;;;;10.57;8.17;;;;;;;;;;5115442;28;20879;-73
2022/12/23 01:32:57;;;;;;;10.13;8.27;;;;;;;;;;5117104;28;20441;-74
2022/12/23 01:35:26;;;;;;;10.20;9.07;;;;;;;;;;5116923;28;20536;-74
2022/12/23 01:37:53;;;;;;;10.73;9.50;;;;;;;;;;5116774;28;20452;-73
2022/12/23 01:40:20;;;;;;;12.07;9.90;;;;;;;;;;5116874;28;20529;-73
2022/12/23 01:42:46;;;;;;;9.63;7.80;;;;;;;;;;5117152;28;20452;-73
2022/12/23 01:45:17;;;;;;;11.43;9.00;;;;;;;;;;5116577;28;20531;-74
2022/12/23 01:47:45;;;;;;;8.53;7.63;;;;;;;;;;5116962;28;20540;-73
2022/12/23 01:50:15;;;;;;;8.60;7.70;;;;;;;;;;5116531;28;20555;-74
2022/12/23 01:52:46;;;;;;;8.17;6.80;;;;;;;;;;5116446;28;20452;-73
2022/12/23 01:55:13;;;;;;;6.33;5.63;;;;;;;;;;5116633;28;20865;-73
2022/12/23 01:57:41;;;;;;;7.00;5.70;;;;;;;;;;5116907;28;20540;-73
2022/12/23 02:05:38;;;;;;;7.03;5.83;;;;;;;;;;5116369;28;21021;-74
2022/12/23 02:11:05;;;;;;;8.83;7.23;;;;;;;;;;5116601;28;20535;-74
2022/12/23 02:13:35;;;;;;;9.13;7.23;;;;;;;;;;5116353;28;20450;-73
2022/12/23 02:16:18;;;;;;;8.47;7.50;;;;;;;;;;5116309;28;20546;-74
2022/12/23 02:19:05;;;;;;;9.07;7.80;;;;;;;;;;5116302;28;20602;-74
2022/12/23 02:21:36;;;;;;;9.33;7.20;;;;;;;;;;5108362;28;20572;-75
2022/12/23 02:24:22;;;;;;;9.17;8.00;;;;;;;;;;5116391;28;20537;-75
2022/12/23 02:27:00;;;;;;;9.87;7.60;;;;;;;;;;5116151;28;20541;-75
2022/12/23 02:29:35;;;;;;;13.13;9.67;;;;;;;;;;5115907;28;20835;-75
2022/12/23 02:32:08;;;;;;;10.73;7.63;;;;;;;;;;5115833;28;20552;-75
2022/12/23 02:34:38;;;;;;;10.80;8.93;;;;;;;;;;5116315;28;20635;-75
2022/12/23 02:37:07;;;;;;;8.30;6.70;;;;;;;;;;5115828;28;20477;-75
2022/12/23 02:39:38;;;;;;;10.17;7.67;;;;;;;;;;5115758;28;20442;-75
2022/12/23 02:42:07;;;;;;;7.53;6.53;;;;;;;;;;5114437;28;20488;-75
2022/12/23 02:44:36;;;;;;;16.77;12.90;;;;;;;;;;5115628;28;20446;-74
2022/12/23 02:47:07;;;;;;;10.10;8.70;;;;;;;;;;5115625;28;20955;-75
2022/12/23 02:49:34;;;;;;;9.40;6.90;;;;;;;;;;5115587;28;20540;-74
2022/12/23 02:52:03;;;;;;;12.40;9.80;;;;;;;;;;5115512;28;20891;-75
2022/12/23 02:54:31;;;;;;;10.83;8.53;;;;;;;;;;5115289;28;21036;-75
2022/12/23 02:57:00;;;;;;;10.23;8.43;;;;;;;;;;5115268;28;20505;-74
2022/12/23 02:59:29;;;;;;;10.60;8.77;;;;;;;;;;5115179;28;20557;-74
2022/12/23 03:01:57;;;;;;;11.13;9.00;;;;;;;;;;5115245;28;20482;-74
2022/12/23 03:04:26;;;;;;;11.83;9.00;;;;;;;;;;5115287;28;20532;-74
2022/12/23 03:06:54;;;;;;;13.80;9.60;;;;;;;;;;5115132;28;20895;-75
2022/12/23 03:09:24;;;;;;;10.80;9.17;;;;;;;;;;5115099;28;20532;-75
2022/12/23 03:11:54;;;;;;;9.83;8.23;;;;;;;;;;5115060;28;20858;-75
2022/12/23 03:14:32;;;;;;;9.97;7.20;;;;;;;;;;5115283;28;20539;-75
2022/12/23 03:17:05;;;;;;;9.27;6.97;;;;;;;;;;5114939;28;20941;-75
2022/12/23 03:19:38;;;;;;;5.40;4.90;;;;;;;;;;5115028;28;20533;-75
2022/12/23 03:22:08;;;;;;;5.67;5.00;;;;;;;;;;5114732;28;20580;-75
2022/12/23 03:24:39;;;;;;;7.87;6.50;;;;;;;;;;5115239;28;20533;-75
2022/12/23 03:27:09;;;;;;;8.17;6.40;;;;;;;;;;5114936;28;20454;-75
2022/12/23 03:29:38;;;;;;;7.47;6.67;;;;;;;;;;5114788;28;20539;-75
2022/12/23 03:32:06;;;;;;;9.60;7.10;;;;;;;;;;5114687;28;20831;-75
2022/12/23 03:34:36;;;;;;;9.23;7.27;;;;;;;;;;5114549;28;20528;-74
2022/12/23 03:37:05;;;;;;;7.27;5.73;;;;;;;;;;5114996;28;20537;-75
2022/12/23 03:39:34;;;;;;;8.73;7.10;;;;;;;;;;5114678;28;20529;-75
2022/12/23 03:42:04;;;;;;;6.87;6.17;;;;;;;;;;5114458;28;20872;-74
2022/12/23 03:44:33;;;;;;;7.50;6.70;;;;;;;;;;5114532;28;20877;-74
2022/12/23 03:47:03;;;;;;;7.10;6.40;;;;;;;;;;5114175;28;20910;-74
2022/12/23 03:49:32;;;;;;;10.47;8.17;;;;;;;;;;5114396;28;20438;-74
2022/12/23 03:52:03;;;;;;;10.23;7.77;;;;;;;;;;5114380;28;20541;-73
2022/12/23 03:54:33;;;;;;;11.50;7.90;;;;;;;;;;5114292;28;20540;-74
2022/12/23 03:57:02;;;;;;;10.17;8.50;;;;;;;;;;5114223;28;20882;-74
2022/12/23 03:59:32;;;;;;;9.80;7.30;;;;;;;;;;5114145;28;20456;-74
2022/12/23 04:02:02;;;;;;;12.37;9.17;;;;;;;;;;5114164;28;20569;-74
2022/12/23 04:04:30;;;;;;;11.20;8.53;;;;;;;;;;5114419;28;20545;-73
2022/12/23 04:07:00;;;;;;;11.13;8.03;;;;;;;;;;5114078;28;20544;-74
2022/12/23 04:09:29;;;;;;;9.90;7.90;;;;;;;;;;5113905;28;20541;-74
2022/12/23 04:11:57;;;;;;;11.00;7.90;;;;;;;;;;5113775;28;20450;-74
2022/12/23 04:14:24;;;;;;;11.80;7.33;;;;;;;;;;5113773;28;20967;-74
2022/12/23 04:16:54;;;;;;;11.10;8.53;;;;;;;;;;5113971;28;20449;-74
2022/12/23 04:19:21;;;;;;;9.40;7.50;;;;;;;;;;5113869;28;20537;-74
2022/12/23 04:21:48;;;;;;;11.87;8.20;;;;;;;;;;5113755;28;20478;-74
2022/12/23 04:24:15;;;;;;;14.33;8.37;;;;;;;;;;5113721;28;20545;-74
2022/12/23 04:26:43;;;;;;;12.10;7.90;;;;;;;;;;5113584;28;20454;-74
2022/12/23 04:29:10;;;;;;;8.53;6.70;;;;;;;;;;5113832;28;20446;-74
2022/12/23 04:31:37;;;;;;;9.60;8.00;;;;;;;;;;5113832;28;20549;-73
2022/12/23 04:34:04;;;;;;;11.50;9.00;;;;;;;;;;5113532;28;20446;-74
2022/12/23 04:36:31;;;;;;;11.30;8.50;;;;;;;;;;5113612;28;20446;-74
2022/12/23 04:38:58;;;;;;;11.03;8.67;;;;;;;;;;5113403;28;20538;-74
2022/12/23 04:41:25;;;;;;;12.17;9.47;;;;;;;;;;5113173;28;20874;-74
2022/12/23 04:43:53;;;;;;;11.90;9.07;;;;;;;;;;5113424;28;20449;-73
2022/12/23 04:46:20;;;;;;;12.70;10.20;;;;;;;;;;5113330;28;20470;-74
2022/12/23 04:48:47;;;;;;;13.40;9.80;;;;;;;;;;5113329;28;20548;-74
2022/12/23 04:51:14;;;;;;;12.37;9.80;;;;;;;;;;5113288;28;20541;-75
2022/12/23 04:53:41;;;;;;;10.27;8.40;;;;;;;;;;5113023;28;20805;-74
2022/12/23 04:56:08;;;;;;;11.50;8.40;;;;;;;;;;5113355;28;20446;-74
2022/12/23 04:58:35;;;;;;;12.10;9.60;;;;;;;;;;5113247;28;20449;-74
2022/12/23 05:01:03;;;;;;;12.97;10.10;;;;;;;;;;5113134;28;20878;-74
2022/12/23 05:03:30;;;;;;;11.73;8.67;;;;;;;;;;5113211;28;20452;-74
2022/12/23 05:05:57;;;;;;;11.37;8.80;;;;;;;;;;5112439;28;20449;-75
2022/12/23 05:08:24;;;;;;;11.73;9.27;;;;;;;;;;5113047;28;20450;-74
2022/12/23 05:10:52;;;;;;;12.03;9.17;;;;;;;;;;5113226;28;20541;-74
2022/12/23 05:13:19;;;;;;;15.23;9.33;;;;;;;;;;5113170;28;20545;-74
2022/12/23 05:15:46;;;;;;;16.70;10.80;;;;;;;;;;5112976;28;20484;-75
2022/12/23 05:18:14;;;;;;;13.27;10.77;;;;;;;;;;5113086;28;20543;-76
2022/12/23 05:20:41;;;;;;;14.87;10.50;;;;;;;;;;5112905;28;20620;-76
2022/12/23 05:23:08;;;;;;;12.90;10.27;;;;;;;;;;5113013;28;20516;-76
2022/12/23 05:25:35;;;;;;;13.33;9.77;;;;;;;;;;5113058;28;20536;-76
2022/12/23 05:28:02;;;;;;;12.70;9.27;;;;;;;;;;5112896;28;20454;-76
2022/12/23 05:30:29;;;;;;;14.00;11.40;;;;;;;;;;5112895;28;20543;-76
2022/12/23 05:32:57;;;;;;;12.60;9.20;;;;;;;;;;5112824;28;20561;-76
2022/12/23 05:35:26;;;;;;;11.90;9.37;;;;;;;;;;5112685;28;20552;-75
2022/12/23 05:37:53;;;;;;;13.97;10.13;;;;;;;;;;5112986;28;20793;-75
2022/12/23 05:40:20;;;;;;;13.53;10.33;;;;;;;;;;5112942;28;20532;-75
2022/12/23 05:42:47;;;;;;;9.80;8.07;;;;;;;;;;5112721;28;21006;-75
2022/12/23 05:45:14;;;;;;;12.30;9.00;;;;;;;;;;5112864;28;20446;-74
2022/12/23 05:47:41;;;;;;;11.90;9.53;;;;;;;;;;5112748;28;20891;-75
2022/12/23 05:50:08;;;;;;;9.57;7.80;;;;;;;;;;5112482;28;20461;-74
2022/12/23 05:52:37;;;;;;;9.20;7.07;;;;;;;;;;5112773;28;20554;-75
2022/12/23 05:55:04;;;;;;;8.33;6.50;;;;;;;;;;5112728;28;20454;-74
2022/12/23 05:57:31;;;;;;;10.10;7.80;;;;;;;;;;5112647;28;20528;-74
2022/12/23 05:59:58;;;;;;;10.57;7.73;;;;;;;;;;5112532;28;20446;-74
2022/12/23 06:02:25;;;;;;;7.40;6.60;;;;;;;;;;5112342;28;20576;-74
2022/12/23 06:04:52;;;;;;;10.07;7.37;;;;;;;;;;5112638;28;20458;-74
2022/12/23 06:07:19;;;;;;;11.93;9.10;;;;;;;;;;5112531;28;20999;-75
2022/12/23 06:09:47;;;;;;;7.10;6.27;;;;;;;;;;5112527;28;20445;-74
2022/12/23 06:12:14;;;;;;;5.07;4.57;;;;;;;;;;5112383;28;20545;-74
2022/12/23 06:14:41;;;;;;;5.10;4.60;;;;;;;;;;5112385;28;20536;-74
2022/12/23 06:17:08;;;;;;;4.90;4.40;;;;;;;;;;5115404;28;20570;-74
2022/12/23 06:19:35;;;;;;;5.73;4.93;;;;;;;;;;5116128;28;20446;-74
2022/12/23 06:22:02;;;;;;;9.10;6.20;;;;;;;;;;5116218;28;20469;-74
2022/12/23 06:24:28;;;;;;;7.47;6.03;;;;;;;;;;5116011;28;20449;-74
2022/12/23 06:26:57;;;;;;;8.20;6.60;;;;;;;;;;5115912;28;20537;-74
2022/12/23 06:29:24;;;;;;;7.90;7.10;;;;;;;;;;5115876;28;21004;-72
2022/12/23 06:31:51;;;;;;;7.10;6.07;;;;;;;;;;5115834;28;20542;-74
2022/12/23 06:34:18;;;;;;;5.30;4.80;;;;;;;;;;5116010;28;20533;-74
2022/12/23 06:36:44;;;;;;;6.17;5.60;;;;;;;;;;5115903;28;20891;-74
2022/12/23 06:39:12;;;;;;;7.53;5.73;;;;;;;;;;5115813;28;20541;-74
2022/12/23 06:41:39;;;;;;;5.10;4.60;;;;;;;;;;5115415;28;20533;-74
2022/12/23 06:44:08;;;;;;;8.83;6.57;;;;;;;;;;5115398;28;20533;-74
2022/12/23 06:46:35;;;;;;;7.20;5.90;;;;;;;;;;5115405;28;20474;-74
2022/12/23 06:49:02;;;;;;;7.07;6.10;;;;;;;;;;5115633;28;20453;-73
2022/12/23 06:51:29;;;;;;;8.93;7.50;;;;;;;;;;5115721;28;20446;-74
2022/12/23 06:53:56;;;;;;;9.70;7.93;;;;;;;;;;5115444;28;20541;-74
2022/12/23 06:56:23;;;;;;;8.53;7.10;;;;;;;;;;5115282;28;20588;-74
2022/12/23 06:58:51;;;;;;;9.17;7.60;;;;;;;;;;5115104;28;20507;-74
2022/12/23 07:01:19;;;;;;;9.50;7.77;;;;;;;;;;5115081;28;20921;-74
2022/12/23 07:03:46;;;;;;;10.40;8.03;;;;;;;;;;5115094;28;20485;-74
2022/12/23 07:06:13;;;;;;;10.23;8.07;;;;;;;;;;5115162;28;20460;-74
2022/12/23 07:08:40;;;;;;;11.00;8.40;;;;;;;;;;5115062;28;21008;-74
2022/12/23 07:11:08;;;;;;;8.43;6.90;;;;;;;;;;5114885;28;20941;-73
2022/12/23 07:13:35;;;;;;;10.20;7.67;;;;;;;;;;5114800;28;20464;-73
2022/12/23 07:16:05;;;;;;;9.60;7.87;;;;;;;;;;5115028;28;20568;-74
2022/12/23 07:18:34;;;;;;;11.47;9.33;;;;;;;;;;5115002;28;20538;-74
2022/12/23 07:21:01;;;;;;;11.37;7.93;;;;;;;;;;5114827;28;20493;-73
2022/12/23 07:23:29;;;;;;;8.90;7.90;;;;;;;;;;5114688;28;20609;-74
2022/12/23 07:25:56;;;;;;;11.27;9.30;;;;;;;;;;5114436;28;20495;-74
2022/12/23 07:28:23;;;;;;;9.47;8.30;;;;;;;;;;5114154;28;20525;-73
2022/12/23 07:30:50;;;;;;;11.83;9.60;;;;;;;;;;5114726;28;20442;-73
2022/12/23 07:33:17;;;;;;;12.37;9.20;;;;;;;;;;5114490;28;20530;-73
2022/12/23 07:35:45;;;;;;;11.03;8.10;;;;;;;;;;5114523;28;20540;-74
2022/12/23 07:38:12;;;;;;;12.67;9.10;;;;;;;;;;5114422;28;20536;-73
2022/12/23 07:40:39;;;;;;;12.33;9.00;;;;;;;;;;5114500;28;20578;-73
2022/12/23 07:43:06;;;;;;;13.00;9.80;;;;;;;;;;5114412;28;20921;-74
2022/12/23 07:45:33;;;;;;;16.30;10.37;;;;;;;;;;5114244;28;20478;-73
2022/12/23 07:48:00;;;;;;;13.63;9.70;;;;;;;;;;5114340;28;20449;-74
2022/12/23 07:50:27;;;;;;;15.20;10.97;;;;;;;;;;5114233;28;20542;-74
2022/12/23 07:52:56;;;;;;;18.33;9.73;;;;;;;;;;5114092;28;20536;-73
2022/12/23 07:55:23;;;;;;;13.80;10.83;;;;;;;;;;5114316;28;20536;-74
2022/12/23 07:57:50;;;;;;;17.20;11.20;;;;;;;;;;5114196;28;20959;-73
2022/12/23 08:00:18;;;;;;;14.27;9.70;;;;;;;;;;5114139;28;20537;-74
2022/12/23 08:02:44;;;;;;;16.03;11.50;;;;;;;;;;5113802;28;20474;-74
2022/12/23 08:05:12;;;;;;;14.47;11.07;;;;;;;;;;5114082;28;20458;-74
2022/12/23 08:07:39;;;;;;;16.27;10.63;;;;;;;;;;5113902;28;20984;-74
2022/12/23 08:10:08;;;;;;;15.40;10.30;;;;;;;;;;5113960;28;20507;-74
2022/12/23 08:12:35;;;;;;;20.93;12.77;;;;;;;;;;5113835;28;20545;-74
2022/12/23 08:15:02;;;;;;;13.53;9.60;;;;;;;;;;5113743;28;21037;-74
2022/12/23 08:17:29;;;;;;;16.33;9.60;;;;;;;;;;5113758;28;20544;-73
2022/12/23 08:19:57;;;;;;;13.83;10.07;;;;;;;;;;5113592;28;21058;-73
2022/12/23 08:22:24;;;;;;;15.40;10.23;;;;;;;;;;5113552;28;21032;-74
2022/12/23 08:24:51;;;;;;;15.57;10.37;;;;;;;;;;5113825;28;20452;-67
2022/12/23 08:27:19;;;;;;;17.10;11.90;;;;;;;;;;5113121;28;20543;-62
2022/12/23 08:29:46;;;;;;;15.50;10.83;;;;;;;;;;5113488;28;20541;-69
2022/12/23 08:32:13;;;;;;;18.00;11.20;;;;;;;;;;5113462;28;20540;-67
2022/12/23 08:34:40;;;;;;;14.30;10.60;;;;;;;;;;5113323;28;20545;-64
2022/12/23 08:37:07;;;;;;;20.70;11.27;;;;;;;;;;5113410;28;20445;-61
2022/12/23 08:39:34;;;;;;;15.03;10.40;;;;;;;;;;5112297;28;20477;-61
2022/12/23 08:42:01;;;;;;;17.50;11.33;;;;;;;;;;5113323;28;20450;-61
2022/12/23 08:44:31;;;;;;;15.03;9.70;;;;;;;;;;5113136;28;20896;-60
2022/12/23 08:46:58;;;;;;;13.37;8.97;;;;;;;;;;5109584;28;20466;-71
2022/12/23 08:49:25;;;;;;;17.23;10.13;;;;;;;;;;5101236;28;20941;-63
2022/12/23 08:51:52;;;;;;;13.53;9.63;;;;;;;;;;5110171;28;20532;-67
2022/12/23 08:54:19;;;;;;;13.37;9.23;;;;;;;;;;5111660;28;20540;-63
2022/12/23 08:56:46;;;;;;;12.77;9.93;;;;;;;;;;5108649;28;20513;-63
2022/12/23 08:59:14;;;;;;;13.57;9.90;;;;;;;;;;5112808;28;20454;-60
2022/12/23 09:01:42;;;;;;;11.13;7.63;;;;;;;;;;5112670;28;20446;-66
2022/12/23 09:04:09;;;;;;;10.37;8.43;;;;;;;;;;5113248;28;20568;-60
2022/12/23 09:06:37;;;;;;;12.00;8.80;;;;;;;;;;5112802;28;21040;-64
2022/12/23 09:09:04;;;;;;;12.13;8.57;;;;;;;;;;5112894;28;20982;-74
2022/12/23 09:11:31;;;;;;;14.30;9.10;;;;;;;;;;5112932;28;20545;-79
2022/12/23 09:13:59;;;;;;;11.80;9.20;;;;;;;;;;5113037;28;20484;-64
2022/12/23 09:16:26;;;;;;;14.03;9.43;;;;;;;;;;5112748;28;20452;-63
2022/12/23 09:18:55;;;;;;;11.97;8.90;;;;;;;;;;5112648;28;20442;-66
2022/12/23 09:21:23;;;;;;;15.00;9.53;;;;;;;;;;5112817;28;20897;-61
2022/12/23 09:23:50;;;;;;;12.77;8.80;;;;;;;;;;5112840;28;20619;-61
2022/12/23 09:26:18;;;;;;;14.63;9.63;;;;;;;;;;5112714;28;20767;-62
2022/12/23 09:28:45;;;;;;;15.03;8.40;;;;;;;;;;5112666;28;20805;-62
2022/12/23 09:31:12;;;;;;;13.93;9.60;;;;;;;;;;5112749;28;20496;-66
2022/12/23 09:33:40;;;;;;;16.67;9.40;;;;;;;;;;5112436;28;20517;-71
2022/12/23 09:36:08;;;;;;;13.60;9.17;;;;;;;;;;5112509;28;20528;-69
2022/12/23 09:38:35;;;;;;;12.47;8.60;;;;;;;;;;5104303;28;20443;-64
2022/12/23 09:41:04;;;;;;;13.63;7.70;;;;;;;;;;5092141;28;20446;-64
2022/12/23 09:43:36;;;;;;;14.90;10.70;;;;;;;;;;5091775;28;20479;-64
2022/12/23 09:46:07;;;;;;;13.10;9.00;;;;;;;;;;5092275;28;20566;-64
2022/12/23 09:48:36;;;;;;;11.70;8.73;;;;;;;;;;5092208;28;20451;-64
2022/12/23 09:51:03;;;;;;;13.27;9.00;;;;;;;;;;5093833;28;20541;-64
2022/12/23 09:53:39;;;;;;;11.60;8.30;;;;;;;;;;5096005;28;21009;-64
2022/12/23 09:56:08;;;;;;;11.40;8.87;;;;;;;;;;5096201;28;20450;-65
2022/12/23 09:58:38;;;;;;;16.23;11.40;;;;;;;;;;5096118;28;20447;-65
2022/12/23 10:01:13;;;;;;;14.53;10.20;;;;;;;;;;5095956;28;20889;-64
2022/12/23 10:03:48;;;;;;;19.73;12.30;;;;;;;;;;5095725;28;20477;-64
2022/12/23 10:06:18;;;;;;;16.15;12.73;;;;;;;;;;5094754;28;20452;-65
2022/12/23 10:08:47;;;;;;;18.07;11.77;;;;;;;;;;5096290;28;20200;-64
2022/12/23 10:11:16;;;;;;;16.23;11.70;;;;;;;;;;5095900;28;20447;-64
2022/12/23 10:13:45;;;;;;;12.43;9.20;;;;;;;;;;5095754;28;20533;-64
2022/12/23 10:16:13;;;;;;;16.60;11.10;;;;;;;;;;5095653;28;20537;-64
2022/12/23 10:18:48;;;;;;;15.60;11.30;;;;;;;;;;5095573;28;20545;-64
2022/12/23 10:21:19;;;;;;;16.07;10.40;;;;;;;;;;5095733;28;20446;-65
2022/12/23 10:23:50;;;;;;;14.53;9.87;;;;;;;;;;5095392;28;20483;-65
2022/12/23 10:26:22;;;;;;;10.87;8.10;;;;;;;;;;5095971;28;20876;-83
2022/12/23 10:28:49;;;;;;;12.97;8.77;;;;;;;;;;5095864;28;20446;-86
2022/12/23 10:31:18;;;;;;;15.33;10.60;;;;;;;;;;5103992;28;20521;-65
2022/12/23 10:33:50;;;;;;;15.93;11.97;;;;;;;;;;5115803;28;20529;-64
2022/12/23 10:36:20;;;;;;;13.80;9.67;;;;;;;;;;5115413;28;20448;-78
2022/12/23 10:38:52;;;;;;;13.80;9.80;;;;;;;;;;5115559;28;20608;-83
2022/12/23 10:41:23;;;;;;;9.77;7.37;;;;;;;;;;5115239;28;20532;-72
2022/12/23 10:43:56;;;;;;;10.27;8.10;;;;;;;;;;5115307;28;20832;-70
2022/12/23 10:46:27;;;;;;;13.43;9.80;;;;;;;;;;5108757;28;20557;-67
2022/12/23 10:49:00;;;;;;;14.77;9.77;;;;;;;;;;5115576;28;20482;-68
2022/12/23 10:51:30;;;;;;;12.98;10.15;;;;;;;;;;5114290;28;20447;-62
2022/12/23 10:54:01;;;;;;;10.30;8.43;;;;;;;;;;5115084;28;20726;-65
2022/12/23 10:56:29;;;;;;;17.80;12.70;;;;;;;;;;5114500;28;20514;-60
2022/12/23 10:58:57;;;;;;;8.57;7.33;;;;;;;;;;5115311;28;20454;-60
2022/12/23 11:01:24;;;;;;;11.83;9.07;;;;;;;;;;5115257;28;20878;-60
2022/12/23 11:03:55;;;;;;;11.83;9.37;;;;;;;;;;5114053;28;20510;-60
2022/12/23 11:06:22;;;;;;;10.20;8.03;;;;;;;;;;5115094;28;20515;-60
2022/12/23 11:08:50;;;;;;;13.10;9.37;;;;;;;;;;5114955;28;20541;-62
2022/12/23 11:11:18;;;;;;;10.50;7.90;;;;;;;;;;5114959;28;20449;-65
2022/12/23 11:13:47;;;;;;;10.10;8.10;;;;;;;;;;5114832;28;20566;-65
2022/12/23 11:16:19;;;;;;;10.47;7.70;;;;;;;;;;5114683;28;20446;-65
2022/12/23 11:18:53;;;;;;;13.43;9.53;;;;;;;;;;5114791;28;20537;-65
2022/12/23 11:21:20;;;;;;;10.90;8.87;;;;;;;;;;5114713;28;20500;-65
2022/12/23 11:23:47;;;;;;;11.07;7.60;;;;;;;;;;5114794;28;20608;-65
2022/12/23 11:26:18;;;;;;;12.20;9.10;;;;;;;;;;5114811;28;20530;-65
2022/12/23 11:28:49;;;;;;;14.57;10.73;;;;;;;;;;5114688;28;20477;-65
2022/12/23 11:31:24;;;;;;;17.67;12.03;;;;;;;;;;5114897;28;20529;-65
2022/12/23 11:33:56;;;;;;;14.27;11.13;;;;;;;;;;5114579;28;20541;-65
2022/12/23 11:36:23;;;;;;;14.73;11.40;;;;;;;;;;5114758;28;20454;-65
2022/12/23 11:38:52;;;;;;;15.87;10.93;;;;;;;;;;5114663;28;20561;-65
2022/12/23 11:41:20;;;;;;;15.33;11.23;;;;;;;;;;5114767;28;20537;-65
2022/12/23 11:43:53;;;;;;;17.07;12.20;;;;;;;;;;5114405;28;20479;-65
2022/12/23 11:46:25;;;;;;;17.70;13.47;;;;;;;;;;5114332;28;20656;-65
2022/12/23 11:49:04;;;;;;;22.47;14.97;;;;;;;;;;5114643;28;20449;-65
2022/12/23 11:51:31;;;;;;;20.87;14.40;;;;;;;;;;5114341;28;20541;-65
2022/12/23 11:54:01;;;;;;;19.33;12.77;;;;;;;;;;5114513;28;20477;-65
2022/12/23 11:56:29;;;;;;;18.60;12.00;;;;;;;;;;5114058;28;20608;-65
2022/12/23 11:59:00;;;;;;;14.13;10.03;;;;;;;;;;5114050;28;20533;-65
2022/12/23 12:01:28;;;;;;;23.43;14.70;;;;;;;;;;5114194;28;20887;-65
2022/12/23 12:03:57;;;;;;;15.60;13.37;;;;;;;;;;5114110;28;20572;-65
2022/12/23 12:06:25;;;;;;;17.60;12.90;;;;;;;;;;5114082;28;20542;-65
2022/12/23 12:08:53;;;;;;;14.33;11.70;;;;;;;;;;5113884;28;20447;-65
2022/12/23 12:11:23;;;;;;;15.33;12.23;;;;;;;;;;5113795;28;20457;-65
2022/12/23 12:13:50;;;;;;;14.87;12.00;;;;;;;;;;5113798;28;20454;-65
2022/12/23 12:16:31;;;;;;;14.30;11.47;;;;;;;;;;5113932;28;20543;-65
2022/12/23 12:19:01;;;;;;;15.93;11.80;;;;;;;;;;5114116;28;20445;-65
2022/12/23 12:21:30;;;;;;;12.80;10.67;;;;;;;;;;5114063;28;20534;-65
2022/12/23 12:23:59;;;;;;;15.27;11.73;;;;;;;;;;5113785;28;20557;-66
2022/12/23 12:26:27;;;;;;;14.37;12.10;;;;;;;;;;5113835;28;20450;-65
2022/12/23 12:28:57;;;;;;;16.33;12.00;;;;;;;;;;5113709;28;20609;-65
2022/12/23 12:31:27;;;;;;;16.97;12.27;;;;;;;;;;5113596;28;20450;-65
2022/12/23 12:33:58;;;;;;;16.17;11.27;;;;;;;;;;5113515;28;20497;-65
2022/12/23 12:36:30;;;;;;;15.87;12.40;;;;;;;;;;5113338;28;20540;-65
2022/12/23 12:38:59;;;;;;;12.43;10.23;;;;;;;;;;5113635;28;20453;-65
2022/12/23 12:41:29;;;;;;;14.47;11.50;;;;;;;;;;5113401;28;20446;-65
2022/12/23 12:43:59;;;;;;;16.50;12.87;;;;;;;;;;5113154;28;20466;-65
2022/12/23 12:46:33;;;;;;;18.57;14.10;;;;;;;;;;5113126;28;20580;-65
2022/12/23 12:49:02;;;;;;;13.37;11.97;;;;;;;;;;5113316;28;20456;-65
2022/12/23 12:51:32;;;;;;;16.73;14.63;;;;;;;;;;5113359;28;20485;-65
2022/12/23 12:54:02;;;;;;;14.40;11.63;;;;;;;;;;5113588;28;20481;-65
2022/12/23 12:56:30;;;;;;;12.83;11.53;;;;;;;;;;5113177;28;20458;-63
2022/12/23 12:58:57;;;;;;;13.43;12.07;;;;;;;;;;5113148;28;20472;-63
2022/12/23 13:01:33;;;;;;;13.57;12.07;;;;;;;;;;5113087;28;20535;-65
2022/12/23 13:04:13;;;;;;;15.57;13.00;;;;;;;;;;5113120;28;20985;-65
2022/12/23 13:06:45;;;;;;;15.30;12.00;;;;;;;;;;5113165;28;20545;-65
2022/12/23 13:09:14;;;;;;;14.37;12.03;;;;;;;;;;5113048;28;20449;-65
2022/12/23 13:11:44;;;;;;;15.43;12.07;;;;;;;;;;5112935;28;20541;-65
2022/12/23 13:14:16;;;;;;;18.27;14.93;;;;;;;;;;5113305;28;20449;-65
2022/12/23 13:16:48;;;;;;;15.13;13.50;;;;;;;;;;5113302;28;20489;-66
2022/12/23 13:19:22;;;;;;;14.13;12.23;;;;;;;;;;5113145;28;20873;-65
2022/12/23 13:21:52;;;;;;;14.90;11.93;;;;;;;;;;5112887;28;20540;-65
2022/12/23 13:24:24;;;;;;;14.40;12.30;;;;;;;;;;5112979;28;20477;-64
2022/12/23 13:26:54;;;;;;;15.70;12.40;;;;;;;;;;5116102;28;20454;-65
2022/12/23 13:29:31;;;;;;;13.80;12.30;;;;;;;;;;5117006;28;20533;-65
2022/12/23 13:32:01;;;;;;;17.90;13.30;;;;;;;;;;5117058;28;20532;-65
2022/12/23 13:34:32;;;;;;;18.00;13.83;;;;;;;;;;5117000;28;20473;-65
2022/12/23 13:37:03;;;;;;;14.47;11.33;;;;;;;;;;5116907;28;20536;-65
2022/12/23 13:39:33;;;;;;;15.17;11.30;;;;;;;;;;5117010;28;20446;-65
2022/12/23 13:42:01;;;;;;;13.87;10.27;;;;;;;;;;5116900;28;20921;-65
2022/12/23 13:44:29;;;;;;;11.23;10.03;;;;;;;;;;5116677;28;20534;-64
2022/12/23 13:47:05;;;;;;;11.80;8.90;;;;;;;;;;5116537;28;20480;-65
2022/12/23 13:49:40;;;;;;;11.37;9.07;;;;;;;;;;5116763;28;20494;-65
2022/12/23 13:52:10;;;;;;;8.83;7.93;;;;;;;;;;5116794;28;20449;-65
2022/12/23 13:54:42;;;;;;;10.53;9.43;;;;;;;;;;5116684;28;20821;-64
2022/12/23 13:57:13;;;;;;;11.10;9.57;;;;;;;;;;5116612;28;20835;-64
2022/12/23 13:59:40;;;;;;;9.47;8.50;;;;;;;;;;5116396;28;20456;-65
2022/12/23 14:02:22;;;;;;;9.80;8.10;;;;;;;;;;5116848;28;20540;-65
2022/12/23 14:04:59;;;;;;;10.90;9.73;;;;;;;;;;5115652;28;20481;-64
2022/12/23 14:07:27;;;;;;;10.40;9.30;;;;;;;;;;5116468;28;20456;-64
2022/12/23 14:09:56;;;;;;;11.00;9.63;;;;;;;;;;5116396;28;20448;-64
2022/12/23 14:12:26;;;;;;;9.53;8.30;;;;;;;;;;5116673;28;20448;-65
2022/12/23 14:15:08;;;;;;;7.60;6.90;;;;;;;;;;5116222;28;20909;-65
2022/12/23 14:17:41;;;;;;;6.30;5.70;;;;;;;;;;5112652;28;20441;-65
2022/12/23 14:20:20;;;;;;;6.53;5.43;;;;;;;;;;5116101;28;20551;-64
2022/12/23 14:22:55;;;;;;;7.30;5.93;;;;;;;;;;5116279;28;20453;-65
2022/12/23 14:25:46;;;;;;;9.37;7.40;;;;;;;;;;5116027;28;20488;-65
2022/12/23 14:28:19;;;;;;;9.20;8.27;;;;;;;;;;5116033;28;20528;-64
2022/12/23 14:30:47;;;;;;;7.97;7.20;;;;;;;;;;5115989;28;20445;-65
2022/12/23 14:33:16;;;;;;;7.87;5.57;;;;;;;;;;5116069;28;20495;-65
2022/12/23 14:35:55;;;;;;;6.53;5.67;;;;;;;;;;5115635;28;20528;-64
2022/12/23 14:38:24;;;;;;;6.40;5.80;;;;;;;;;;5114475;28;20442;-65
2022/12/23 14:40:53;;;;;;;4.87;4.47;;;;;;;;;;5115847;28;20468;-65
2022/12/23 14:43:27;;;;;;;5.13;4.63;;;;;;;;;;5115604;28;20452;-64
2022/12/23 14:45:55;;;;;;;5.13;4.70;;;;;;;;;;5115455;28;20489;-64
2022/12/23 14:48:40;;;;;;;7.40;6.70;;;;;;;;;;5115346;28;20452;-64
2022/12/23 14:51:23;;;;;;;7.83;6.30;;;;;;;;;;5115366;28;20447;-64
2022/12/23 14:54:09;;;;;;;6.77;6.10;;;;;;;;;;5115132;28;20836;-64
2022/12/23 14:56:46;;;;;;;4.97;4.23;;;;;;;;;;5115514;28;20929;-64
2022/12/23 14:59:17;;;;;;;4.87;4.43;;;;;;;;;;5115493;28;20441;-64
2022/12/23 15:01:47;;;;;;;4.73;4.33;;;;;;;;;;5115433;28;20545;-64
2022/12/23 15:04:17;;;;;;;4.93;4.27;;;;;;;;;;5115212;28;20548;-64